createdAt,value
2022-11-01T00:01:07.835Z,94343.69
2022-11-01T00:03:34.641Z,94340.50
2022-11-01T00:06:01.315Z,94338.34
2022-11-01T00:08:28.230Z,94339.75
2022-11-01T00:11:02.825Z,94335.41
2022-11-01T00:13:29.591Z,94343.75
2022-11-01T00:15:56.430Z,94321.03
2022-11-01T00:18:23.392Z,94341.31
2022-11-01T00:20:50.229Z,94331.34
2022-11-01T00:23:17.070Z,94330.69
2022-11-01T00:25:43.783Z,94338.16
2022-11-01T00:28:10.531Z,94339.13
2022-11-01T00:30:38.811Z,94338.91
2022-11-01T00:33:06.120Z,94338.97
2022-11-01T00:35:33.228Z,94337.19
2022-11-01T00:38:00.872Z,94340.94
2022-11-01T00:40:27.850Z,94349.22
2022-11-01T00:42:54.670Z,94344.25
2022-11-01T00:45:21.459Z,94332.69
2022-11-01T00:47:48.370Z,94341.56
2022-11-01T00:50:15.455Z,94333.69
2022-11-01T00:52:42.132Z,94339.59
2022-11-01T00:55:09.319Z,94341.91
2022-11-01T00:57:36.080Z,94335.41
2022-11-01T01:00:04.410Z,94340.81
2022-11-01T01:02:31.199Z,94333.88
2022-11-01T01:04:58.021Z,94340.00
2022-11-01T01:07:24.760Z,94323.66
2022-11-01T01:09:51.458Z,94326.25
2022-11-01T01:12:18.180Z,94325.75
2022-11-01T01:14:44.823Z,94328.50
2022-11-01T01:17:11.631Z,94327.06
2022-11-01T01:19:38.328Z,94330.84
2022-11-01T01:22:04.991Z,94330.41
2022-11-01T01:24:32.400Z,94334.38
2022-11-01T01:26:59.660Z,94331.22
2022-11-01T01:29:26.298Z,94333.00
2022-11-01T01:31:53.050Z,94332.59
2022-11-01T01:34:19.821Z,94334.19
2022-11-01T01:36:47.111Z,94334.97
2022-11-01T01:39:14.173Z,94332.00
2022-11-01T01:41:56.393Z,94331.59
2022-11-01T01:44:50.129Z,94329.75
2022-11-01T01:47:28.808Z,94335.53
2022-11-01T01:50:09.590Z,94331.16
2022-11-01T01:52:42.938Z,94330.16
2022-11-01T01:55:11.470Z,94326.19
2022-11-01T01:57:39.908Z,94324.78
2022-11-01T02:00:07.772Z,94319.97
2022-11-01T02:02:34.567Z,94328.31
2022-11-01T02:05:06.670Z,94320.34
2022-11-01T02:07:33.389Z,94318.06
2022-11-01T02:10:00.129Z,94319.47
2022-11-01T02:12:31.814Z,94322.72
2022-11-01T02:14:58.490Z,94320.09
2022-11-01T02:17:33.911Z,94326.78
2022-11-01T02:20:00.529Z,94328.88
2022-11-01T02:22:39.032Z,94332.06
2022-11-01T02:25:43.191Z,94333.69
2022-11-01T02:28:43.856Z,94324.16
2022-11-01T02:31:35.671Z,94326.72
2022-11-01T02:34:07.008Z,94328.31
2022-11-01T02:36:49.281Z,94318.31
2022-11-01T02:39:35.311Z,94319.50
2022-11-01T02:42:25.074Z,94321.66
2022-11-01T02:44:57.975Z,94321.94
2022-11-01T02:47:25.549Z,94320.47
2022-11-01T02:49:56.184Z,94324.69
2022-11-01T02:52:25.668Z,94320.97
2022-11-01T02:54:56.452Z,94325.56
2022-11-01T02:57:41.620Z,94322.00
2022-11-01T03:00:24.340Z,94321.50
2022-11-01T03:02:56.630Z,94326.50
2022-11-01T03:05:45.129Z,94325.97
2022-11-01T03:08:16.698Z,94332.00
2022-11-01T03:10:57.231Z,94328.34
2022-11-01T03:13:46.172Z,94334.19
2022-11-01T03:16:32.470Z,94337.31
2022-11-01T03:19:46.890Z,94319.84
2022-11-01T03:23:00.313Z,94329.47
2022-11-01T03:25:40.706Z,94331.94
2022-11-01T03:28:46.792Z,94334.97
2022-11-01T03:31:20.283Z,94338.06
2022-11-01T03:33:51.010Z,94343.41
2022-11-01T03:36:20.484Z,94340.22
2022-11-01T03:39:09.026Z,94339.84
2022-11-01T03:41:40.709Z,94333.81
2022-11-01T03:44:08.130Z,94337.38
2022-11-01T03:46:34.888Z,94337.50
2022-11-01T03:49:01.729Z,94338.59
2022-11-01T03:51:29.297Z,94347.66
2022-11-01T03:53:56.095Z,94348.91
2022-11-01T03:56:22.890Z,94350.94
2022-11-01T03:58:49.711Z,94352.81
2022-11-01T04:01:17.593Z,94346.34
2022-11-01T04:03:45.141Z,94354.59
2022-11-01T04:06:11.958Z,94344.16
2022-11-01T04:08:38.912Z,94345.84
2022-11-01T04:11:05.759Z,94349.63
2022-11-01T04:13:32.462Z,94346.66
2022-11-01T04:16:17.939Z,94347.44
2022-11-01T04:19:03.522Z,94348.88
2022-11-01T04:21:31.552Z,94354.38
2022-11-01T04:23:58.232Z,94355.22
2022-11-01T04:26:25.032Z,94356.97
2022-11-01T04:29:00.757Z,94352.34
2022-11-01T04:31:30.170Z,94349.72
2022-11-01T04:33:57.932Z,94342.38
2022-11-01T04:36:25.455Z,94347.66
2022-11-01T04:38:55.650Z,94354.00
2022-11-01T04:41:23.850Z,94355.25
2022-11-01T04:43:53.152Z,94350.53
2022-11-01T04:46:19.890Z,94358.16
2022-11-01T04:48:46.732Z,94361.63
2022-11-01T04:51:13.709Z,94353.91
2022-11-01T04:53:40.420Z,94344.75
2022-11-01T04:56:09.149Z,94350.59
2022-11-01T04:58:41.451Z,94343.63
2022-11-01T05:01:12.105Z,94343.16
2022-11-01T05:03:38.940Z,94350.16
2022-11-01T05:06:05.791Z,94348.84
2022-11-01T05:08:33.155Z,94346.38
2022-11-01T05:10:59.961Z,94350.56
2022-11-01T05:13:26.728Z,94352.75
2022-11-01T05:16:13.881Z,94354.81
2022-11-01T05:18:42.507Z,94352.13
2022-11-01T05:21:09.091Z,94343.59
2022-11-01T05:23:35.650Z,94350.97
2022-11-01T05:26:02.250Z,94349.56
2022-11-01T05:28:28.856Z,94356.47
2022-11-01T05:30:55.450Z,94359.94
2022-11-01T05:33:22.148Z,94355.50
2022-11-01T05:35:48.803Z,94362.69
2022-11-01T05:38:15.359Z,94369.63
2022-11-01T05:40:41.977Z,94362.25
2022-11-01T05:43:09.059Z,94365.38
2022-11-01T05:45:35.600Z,94366.69
2022-11-01T05:48:03.605Z,94370.50
2022-11-01T05:50:30.502Z,94370.34
2022-11-01T05:53:07.846Z,94358.19
2022-11-01T05:55:35.198Z,94366.06
2022-11-01T05:58:01.812Z,94368.00
2022-11-01T06:00:28.485Z,94379.38
2022-11-01T06:02:57.820Z,94373.84
2022-11-01T06:05:25.070Z,94369.94
2022-11-01T06:07:51.721Z,94370.56
2022-11-01T06:10:18.450Z,94381.66
2022-11-01T06:12:45.085Z,94385.69
2022-11-01T06:15:11.885Z,94395.84
2022-11-01T06:17:38.540Z,94391.44
2022-11-01T06:20:05.737Z,94398.25
2022-11-01T06:22:35.889Z,94396.88
2022-11-01T06:25:02.520Z,94401.63
2022-11-01T06:27:29.147Z,94406.09
2022-11-01T06:29:55.779Z,94396.16
2022-11-01T06:32:22.464Z,94398.09
2022-11-01T06:34:49.109Z,94401.28
2022-11-01T06:37:15.817Z,94398.00
2022-11-01T06:39:42.413Z,94406.72
2022-11-01T06:42:09.372Z,94406.53
2022-11-01T06:44:35.971Z,94410.19
2022-11-01T06:47:02.551Z,94409.63
2022-11-01T06:49:29.551Z,94403.50
2022-11-01T06:51:56.379Z,94407.06
2022-11-01T06:54:22.982Z,94413.47
2022-11-01T06:56:49.814Z,94417.63
2022-11-01T06:59:16.930Z,94417.72
2022-11-01T07:01:44.378Z,94420.56
2022-11-01T07:06:43.012Z,94419.66
2022-11-01T07:09:10.375Z,94425.94
2022-11-01T07:11:37.051Z,94426.53
2022-11-01T07:14:04.496Z,94429.63
2022-11-01T07:16:31.996Z,94426.19
2022-11-01T07:18:58.656Z,94424.44
2022-11-01T07:21:25.312Z,94428.09
2022-11-01T07:23:54.083Z,94429.63
2022-11-01T07:26:21.286Z,94426.41
2022-11-01T07:28:48.190Z,94438.84
2022-11-01T07:31:15.117Z,94436.22
2022-11-01T07:33:41.838Z,94432.53
2022-11-01T07:36:08.785Z,94430.75
2022-11-01T07:38:35.559Z,94435.69
2022-11-01T07:41:04.493Z,94434.84
2022-11-01T07:43:31.367Z,94434.28
2022-11-01T07:46:00.995Z,94423.00
2022-11-01T07:48:27.922Z,94428.84
2022-11-01T07:50:56.598Z,94434.75
2022-11-01T07:53:23.667Z,94422.22
2022-11-01T07:55:50.401Z,94426.03
2022-11-01T07:58:17.573Z,94433.44
2022-11-01T08:00:45.006Z,94432.41
2022-11-01T08:03:14.144Z,94441.03
2022-11-01T08:05:41.939Z,94433.03
2022-11-01T08:08:09.214Z,94420.69
2022-11-01T08:10:37.012Z,94417.72
2022-11-01T08:13:04.415Z,94430.91
2022-11-01T08:15:31.586Z,94416.19
2022-11-01T08:17:59.073Z,94423.53
2022-11-01T08:20:26.354Z,94427.34
2022-11-01T08:22:53.794Z,94434.53
2022-11-01T08:25:20.622Z,94434.91
2022-11-01T08:27:47.437Z,94434.94
2022-11-01T08:30:15.172Z,94432.25
2022-11-01T08:32:42.084Z,94438.56
2022-11-01T08:35:09.241Z,94441.41
2022-11-01T08:37:36.068Z,94440.81
2022-11-01T08:40:03.458Z,94445.06
2022-11-01T08:42:30.260Z,94449.50
2022-11-01T08:44:56.932Z,94449.81
2022-11-01T08:47:23.715Z,94455.88
2022-11-01T08:49:50.402Z,94456.72
2022-11-01T08:52:17.165Z,94457.16
2022-11-01T08:54:43.875Z,94459.78
2022-11-01T08:57:10.640Z,94457.00
2022-11-01T08:59:37.376Z,94459.09
2022-11-01T09:02:04.271Z,94456.63
2022-11-01T09:04:31.159Z,94445.28
2022-11-01T09:06:57.919Z,94448.41
2022-11-01T09:09:24.609Z,94463.53
2022-11-01T09:11:51.402Z,94472.91
2022-11-01T09:14:18.169Z,94477.47
2022-11-01T09:16:45.541Z,94474.94
2022-11-01T09:19:12.220Z,94466.78
2022-11-01T09:21:38.980Z,94472.00
2022-11-01T09:24:06.035Z,94472.75
2022-11-01T09:26:32.760Z,94473.41
2022-11-01T09:29:00.179Z,94465.75
2022-11-01T09:31:26.967Z,94478.78
2022-11-01T09:33:58.262Z,94458.31
2022-11-01T09:36:25.637Z,94476.28
2022-11-01T09:38:52.411Z,94460.00
2022-11-01T09:41:35.964Z,94457.97
2022-11-01T09:44:05.504Z,94460.81
2022-11-01T09:46:38.019Z,94461.50
2022-11-01T09:49:06.846Z,94467.69
2022-11-01T09:51:33.775Z,94458.75
2022-11-01T09:54:04.474Z,94462.53
2022-11-01T09:56:58.610Z,94465.47
2022-11-01T09:59:34.210Z,94457.41
2022-11-01T10:02:19.497Z,94466.84
2022-11-01T10:05:08.099Z,94475.47
2022-11-01T10:07:47.379Z,94481.19
2022-11-01T10:10:24.604Z,94478.09
2022-11-01T10:12:54.329Z,94473.09
2022-11-01T10:15:59.267Z,94476.56
2022-11-01T10:18:28.797Z,94479.00
2022-11-01T10:20:56.839Z,94473.81
2022-11-01T10:23:38.729Z,94472.03
2022-11-01T10:26:06.997Z,94473.81
2022-11-01T10:28:56.712Z,94468.63
2022-11-01T10:31:24.814Z,94476.56
2022-11-01T10:34:00.131Z,94475.78
2022-11-01T10:36:33.995Z,94477.47
2022-11-01T10:42:16.752Z,94480.50
2022-11-01T10:44:46.787Z,94478.97
2022-11-01T10:47:19.518Z,94484.63
2022-11-01T10:50:05.459Z,94491.63
2022-11-01T10:52:41.618Z,94483.25
2022-11-01T10:55:16.141Z,94492.25
2022-11-01T10:57:45.848Z,94485.56
2022-11-01T11:00:18.409Z,94480.81
2022-11-01T11:03:07.928Z,94478.00
2022-11-01T11:05:34.811Z,94473.56
2022-11-01T11:08:05.297Z,94468.78
2022-11-01T11:10:32.458Z,94459.75
2022-11-01T11:13:06.751Z,94464.28
2022-11-01T11:15:48.290Z,94460.50
2022-11-01T11:18:21.635Z,94456.41
2022-11-01T11:21:00.448Z,94456.53
2022-11-01T11:23:34.049Z,94457.25
2022-11-01T11:26:19.820Z,94444.09
2022-11-01T11:28:52.196Z,94446.69
2022-11-01T11:31:25.394Z,94452.72
2022-11-01T11:33:54.780Z,94450.63
2022-11-01T11:36:32.949Z,94427.81
2022-11-01T11:39:00.289Z,94442.38
2022-11-01T11:41:36.697Z,94439.34
2022-11-01T11:44:03.658Z,94431.44
2022-11-01T11:46:30.486Z,94443.88
2022-11-01T11:49:01.212Z,94433.69
2022-11-01T11:51:30.192Z,94440.72
2022-11-01T11:54:31.839Z,94432.56
2022-11-01T11:57:30.140Z,94428.94
2022-11-01T12:00:01.108Z,94426.53
2022-11-01T12:02:36.476Z,94429.28
2022-11-01T12:05:08.799Z,94436.44
2022-11-01T12:07:44.059Z,94437.81
2022-11-01T12:10:31.805Z,94436.56
2022-11-01T12:12:58.836Z,94434.63
2022-11-01T12:15:38.417Z,94426.06
2022-11-01T12:18:16.251Z,94419.56
2022-11-01T12:20:48.780Z,94419.34
2022-11-01T12:23:35.207Z,94432.09
2022-11-01T12:26:04.743Z,94429.63
2022-11-01T12:28:35.488Z,94425.81
2022-11-01T12:31:12.018Z,94432.09
2022-11-01T12:33:43.606Z,94423.88
2022-11-01T12:36:10.799Z,94427.66
2022-11-01T12:38:47.329Z,94427.16
2022-11-01T12:41:26.459Z,94421.50
2022-11-01T12:44:00.279Z,94419.53
2022-11-01T12:46:38.755Z,94419.75
2022-11-01T12:49:37.389Z,94410.53
2022-11-01T12:52:15.300Z,94405.34
2022-11-01T12:54:47.150Z,94397.28
2022-11-01T12:57:18.390Z,94404.41
2022-11-01T12:59:46.945Z,94403.88
2022-11-01T13:02:40.180Z,94404.59
2022-11-01T13:05:20.577Z,94403.41
2022-11-01T13:08:21.229Z,94394.91
2022-11-01T13:10:48.388Z,94393.41
2022-11-01T13:13:28.129Z,94394.63
2022-11-01T13:16:13.266Z,94391.56
2022-11-01T13:18:46.969Z,94382.53
2022-11-01T13:21:49.555Z,94385.22
2022-11-01T13:24:41.187Z,94396.19
2022-11-01T13:27:15.406Z,94390.63
2022-11-01T13:29:48.916Z,94388.41
2022-11-01T13:32:53.237Z,94390.13
2022-11-01T13:35:40.397Z,94396.22
2022-11-01T13:38:33.527Z,94403.28
2022-11-01T13:41:29.602Z,94395.19
2022-11-01T13:44:19.615Z,94381.78
2022-11-01T13:47:08.327Z,94393.34
2022-11-01T13:49:41.347Z,94403.41
2022-11-01T13:52:19.687Z,94393.31
2022-11-01T13:54:59.878Z,94399.78
2022-11-01T13:57:27.240Z,94399.66
2022-11-01T14:00:08.602Z,94397.16
2022-11-01T14:02:55.859Z,94415.84
2022-11-01T14:05:22.719Z,94414.59
2022-11-01T14:07:50.687Z,94410.47
2022-11-01T14:10:17.318Z,94405.34
2022-11-01T14:12:48.340Z,94404.91
2022-11-01T14:15:25.440Z,94403.50
2022-11-01T14:17:55.999Z,94391.63
2022-11-01T14:20:25.857Z,94391.72
2022-11-01T14:22:53.514Z,94399.06
2022-11-01T14:28:17.607Z,94392.53
2022-11-01T14:30:50.789Z,94390.81
2022-11-01T14:33:20.097Z,94386.25
2022-11-01T14:35:52.457Z,94382.53
2022-11-01T14:38:23.669Z,94384.06
2022-11-01T14:40:55.987Z,94388.69
2022-11-01T14:43:32.847Z,94380.69
2022-11-01T14:46:20.587Z,94383.13
2022-11-01T14:49:15.727Z,94386.53
2022-11-01T14:52:09.698Z,94395.66
2022-11-01T14:54:56.591Z,94411.16
2022-11-01T14:57:28.487Z,94407.41
2022-11-01T14:59:55.959Z,94419.25
2022-11-01T15:02:25.527Z,94403.97
2022-11-01T15:04:59.090Z,94421.41
2022-11-01T15:07:30.875Z,94413.88
2022-11-01T15:10:05.506Z,94388.63
2022-11-01T15:12:35.971Z,94397.72
2022-11-01T15:15:03.145Z,94396.47
2022-11-01T15:17:33.288Z,94408.88
2022-11-01T15:20:02.087Z,94408.06
2022-11-01T15:22:31.765Z,94402.91
2022-11-01T15:25:04.436Z,94402.47
2022-11-01T15:27:51.424Z,94403.22
2022-11-01T15:30:27.560Z,94396.66
2022-11-01T15:33:17.131Z,94397.13
2022-11-01T15:35:43.919Z,94394.78
2022-11-01T15:38:30.680Z,94396.94
2022-11-01T15:40:57.407Z,94398.09
2022-11-01T15:43:27.448Z,94400.06
2022-11-01T15:45:57.089Z,94417.16
2022-11-01T15:48:28.487Z,94410.28
2022-11-01T15:51:07.127Z,94417.81
2022-11-01T15:53:35.797Z,94413.13
2022-11-01T15:56:15.957Z,94419.06
2022-11-01T15:58:47.129Z,94420.78
2022-11-01T16:01:17.674Z,94418.47
2022-11-01T16:04:01.622Z,94416.09
2022-11-01T16:06:40.527Z,94416.78
2022-11-01T16:09:55.455Z,94425.19
2022-11-01T16:12:32.808Z,94418.59
2022-11-01T16:15:02.286Z,94434.34
2022-11-01T16:17:39.674Z,94432.31
2022-11-01T16:20:26.405Z,94440.13
2022-11-01T16:22:53.668Z,94446.72
2022-11-01T16:25:22.378Z,94444.06
2022-11-01T16:28:07.410Z,94451.59
2022-11-01T16:30:36.659Z,94451.91
2022-11-01T16:33:48.158Z,94455.31
2022-11-01T16:36:21.141Z,94465.41
2022-11-01T16:38:54.037Z,94469.72
2022-11-01T16:41:24.629Z,94469.34
2022-11-01T16:43:56.280Z,94475.28
2022-11-01T16:46:25.143Z,94475.03
2022-11-01T16:48:57.508Z,94480.00
2022-11-01T16:51:28.546Z,94480.13
2022-11-01T16:53:57.298Z,94491.06
2022-11-01T16:56:37.460Z,94489.63
2022-11-01T16:59:07.938Z,94484.97
2022-11-01T17:01:35.936Z,94490.84
2022-11-01T17:04:03.751Z,94492.88
2022-11-01T17:06:33.505Z,94489.25
2022-11-01T17:09:04.548Z,94489.47
2022-11-01T17:11:31.235Z,94497.84
2022-11-01T17:13:58.007Z,94500.09
2022-11-01T17:16:25.801Z,94505.53
2022-11-01T17:18:55.228Z,94511.06
2022-11-01T17:21:22.787Z,94510.56
2022-11-01T17:23:51.308Z,94512.81
2022-11-01T17:26:19.410Z,94519.03
2022-11-01T17:28:49.650Z,94524.34
2022-11-01T17:31:19.037Z,94526.16
2022-11-01T17:33:45.797Z,94527.88
2022-11-01T17:36:17.082Z,94521.00
2022-11-01T17:38:44.998Z,94526.28
2022-11-01T17:41:16.725Z,94524.25
2022-11-01T17:43:43.660Z,94522.53
2022-11-01T17:46:15.347Z,94522.69
2022-11-01T17:48:42.180Z,94523.47
2022-11-01T17:51:09.219Z,94530.50
2022-11-01T17:53:39.301Z,94518.84
2022-11-01T17:56:06.798Z,94535.16
2022-11-01T17:58:33.679Z,94519.38
2022-11-01T18:01:00.828Z,94530.22
2022-11-01T18:03:27.980Z,94529.13
2022-11-01T18:05:59.425Z,94532.63
2022-11-01T18:08:27.177Z,94534.66
2022-11-01T18:11:02.569Z,94533.84
2022-11-01T18:13:34.917Z,94530.22
2022-11-01T18:16:14.494Z,94541.44
2022-11-01T18:18:53.834Z,94540.63
2022-11-01T18:21:32.714Z,94546.38
2022-11-01T18:24:04.037Z,94534.81
2022-11-01T18:26:30.919Z,94547.97
2022-11-01T18:29:00.916Z,94547.56
2022-11-01T18:31:56.765Z,94549.16
2022-11-01T18:34:38.717Z,94554.34
2022-11-01T18:37:22.019Z,94558.97
2022-11-01T18:40:11.619Z,94557.16
2022-11-01T18:42:38.516Z,94560.25
2022-11-01T18:45:25.597Z,94562.16
2022-11-01T18:48:00.687Z,94550.63
2022-11-01T18:50:28.455Z,94554.63
2022-11-01T18:53:15.900Z,94558.44
2022-11-01T18:55:44.643Z,94554.69
2022-11-01T18:58:15.907Z,94555.78
2022-11-01T19:00:43.156Z,94559.75
2022-11-01T19:03:12.435Z,94556.34
2022-11-01T19:05:39.717Z,94560.75
2022-11-01T19:08:23.742Z,94563.13
2022-11-01T19:10:51.520Z,94559.22
2022-11-01T19:13:23.796Z,94568.84
2022-11-01T19:15:54.172Z,94571.06
2022-11-01T19:18:22.896Z,94567.44
2022-11-01T19:20:54.638Z,94567.03
2022-11-01T19:23:38.117Z,94577.84
2022-11-01T19:26:17.704Z,94576.69
2022-11-01T19:28:44.308Z,94577.13
2022-11-01T19:31:31.767Z,94570.56
2022-11-01T19:34:06.872Z,94575.53
2022-11-01T19:36:41.315Z,94573.06
2022-11-01T19:39:29.819Z,94567.22
2022-11-01T19:42:12.387Z,94561.03
2022-11-01T19:44:38.948Z,94563.13
2022-11-01T19:47:32.765Z,94560.34
2022-11-01T19:49:59.465Z,94563.38
2022-11-01T19:52:35.100Z,94556.75
2022-11-01T19:55:02.301Z,94560.16
2022-11-01T19:57:34.188Z,94560.94
2022-11-01T20:00:21.555Z,94563.97
2022-11-01T20:02:50.995Z,94565.56
2022-11-01T20:05:28.664Z,94575.97
2022-11-01T20:08:01.730Z,94576.19
2022-11-01T20:10:28.476Z,94577.13
2022-11-01T20:12:55.128Z,94578.78
2022-11-01T20:15:21.661Z,94584.81
2022-11-01T20:17:48.298Z,94586.19
2022-11-01T20:20:14.996Z,94589.78
2022-11-01T20:22:43.910Z,94577.22
2022-11-01T20:25:10.599Z,94591.56
2022-11-01T20:27:37.171Z,94592.19
2022-11-01T20:30:04.058Z,94592.09
2022-11-01T20:32:30.806Z,94595.88
2022-11-01T20:34:57.902Z,94605.41
2022-11-01T20:37:29.094Z,94605.00
2022-11-01T20:39:56.127Z,94609.03
2022-11-01T20:42:22.900Z,94597.44
2022-11-01T20:44:50.122Z,94598.63
2022-11-01T20:47:17.499Z,94606.44
2022-11-01T20:49:44.226Z,94607.00
2022-11-01T20:52:37.849Z,94606.44
2022-11-01T20:54:57.611Z,94593.63
2022-11-01T20:57:28.458Z,94595.59
2022-11-01T20:59:55.791Z,94593.22
2022-11-01T21:02:22.592Z,94600.38
2022-11-01T21:04:56.082Z,94598.19
2022-11-01T21:07:22.633Z,94604.00
2022-11-01T21:09:51.762Z,94599.63
2022-11-01T21:12:44.775Z,94604.91
2022-11-01T21:15:35.135Z,94606.03
2022-11-01T21:18:23.064Z,94604.84
2022-11-01T21:20:49.636Z,94610.84
2022-11-01T21:23:28.394Z,94613.06
2022-11-01T21:25:59.292Z,94612.50
2022-11-01T21:28:33.000Z,94621.44
2022-11-01T21:31:20.185Z,94612.84
2022-11-01T21:33:53.937Z,94615.09
2022-11-01T21:36:21.629Z,94617.25
2022-11-01T21:38:53.247Z,94609.44
2022-11-01T21:41:31.989Z,94623.81
2022-11-01T21:44:19.236Z,94623.41
2022-11-01T21:46:57.632Z,94630.22
2022-11-01T21:49:31.901Z,94624.44
2022-11-01T21:52:01.441Z,94622.44
2022-11-01T21:54:30.260Z,94616.84
2022-11-01T21:56:57.294Z,94615.91
2022-11-01T21:59:24.715Z,94617.09
2022-11-01T22:01:51.530Z,94614.91
2022-11-01T22:04:18.311Z,94616.91
2022-11-01T22:06:45.811Z,94617.25
2022-11-01T22:09:12.421Z,94622.66
2022-11-01T22:11:39.026Z,94614.13
2022-11-01T22:14:06.081Z,94614.09
2022-11-01T22:16:32.776Z,94602.94
2022-11-01T22:18:59.845Z,94606.50
2022-11-01T22:21:26.861Z,94598.91
2022-11-01T22:23:53.528Z,94601.31
2022-11-01T22:26:20.131Z,94598.75
2022-11-01T22:28:46.779Z,94590.59
2022-11-01T22:31:13.405Z,94599.41
2022-11-01T22:33:40.043Z,94598.47
2022-11-01T22:36:22.165Z,94602.69
2022-11-01T22:38:49.529Z,94608.06
2022-11-01T22:41:29.878Z,94599.44
2022-11-01T22:44:14.491Z,94602.44
2022-11-01T22:46:44.260Z,94603.88
2022-11-01T22:49:16.896Z,94603.88
2022-11-01T22:51:46.143Z,94603.56
2022-11-01T22:54:41.231Z,94607.38
2022-11-01T22:57:25.879Z,94605.19
2022-11-01T22:59:53.967Z,94606.97
2022-11-01T23:02:31.662Z,94601.16
2022-11-01T23:05:07.549Z,94612.34
2022-11-01T23:07:43.864Z,94606.69
2022-11-01T23:10:31.552Z,94611.16
2022-11-01T23:13:28.970Z,94612.75
2022-11-01T23:16:02.413Z,94597.94
2022-11-01T23:18:31.935Z,94606.34
2022-11-01T23:21:08.330Z,94606.16
2022-11-01T23:23:37.140Z,94604.34
2022-11-01T23:26:04.283Z,94607.97
2022-11-01T23:28:35.234Z,94609.34
2022-11-01T23:31:04.715Z,94603.19
2022-11-01T23:33:40.118Z,94605.94
2022-11-01T23:36:33.290Z,94611.16
2022-11-01T23:39:04.967Z,94612.34
2022-11-01T23:41:51.109Z,94609.56
2022-11-01T23:44:31.308Z,94620.38
2022-11-01T23:47:02.064Z,94614.56
2022-11-01T23:49:31.166Z,94618.34
2022-11-01T23:51:58.403Z,94608.38
2022-11-01T23:54:27.985Z,94616.00
2022-11-01T23:56:55.412Z,94611.78
2022-11-01T23:59:22.075Z,94608.59
